TRINITY LAKE (CLE)

Elevation: 2370' · TRINITY R basin · Operator: US Bureau of Reclamation

Provisional data, subject to change.
Query executed Sunday at 12:45:39   clock

Select a sensor type for a plot of data.
Note: Reservoir Flows are daily averages.

Earlier

Date RES ELE    STORAGE    RES CHG    OUTFLOW    INFLOW    EVAP    FNF    RIV REL    PPT INC    SPILL    DIS PWR   
 FEET   AF   AF   CFS   CFS   CFS   CFS   CFS   INCHES   CFS   CFS  
10/25/2014 2195.74 562800 0 510 1271 17 527 510 0.16 0 0
10/26/2014 2196.00 564335 0 1217 2001 10 1227 1217 0.32 0 0
10/27/2014 2196.05 564632 4137 475 637 12 2573 475 0.00 0 0
10/28/2014 2195.96 564099 0 1107 850 12 738 1092 0.00 0 15
10/29/2014 2195.80 563154 -1126 985 516 7 424 409 0.00 0 576
10/30/2014 2195.62 562092 -1240 791 263 7 173 277 0.00 0 514
10/31/2014 2195.48 561265 -885 901 484 0 455 513 0.67 0 388
11/01/2014 2195.35 560498 0 851 476 12 863 262 0.19 0 589
11/02/2014 2195.22 559731 0 968 597 16 984 352 0.00 0 616
11/03/2014 2195.11 559081 -2362 1212 896 12 33 217 0.00 0 995
11/04/2014 2195.03 558609 0 0 -233 5 -233 0 0.00 0 0
11/05/2014 2195.01 558491 -826 409 -2 5 -2 0 0.00 0 409
11/06/2014 2194.88 557729 -762 621 240 3 240 0 0.00 0 621
11/07/2014 2194.80 557261 -468 623 390 3 390 0 0.00 0 623
11/08/2014 2194.76 557027 -234 275 166 9 166 0 0.00 0 275
11/09/2014 2194.76 557027 0 158 165 7 165 0 0.00 0 158
11/10/2014 2194.70 556675 -352 612 438 3 438 0 0.00 0 612
11/11/2014 2194.57 555914 -761 674 299 9 299 0 0.00 0 674
11/12/2014 2194.50 555504 -410 287 89 9 89 0 0.00 0 287
11/13/2014 2194.50 555504 0 352 362 10 362 339 0.57 0 13
11/14/2014 2194.49 555445 -59 397 367 0 367 0 0.01 0 397
11/15/2014 2194.43 555094 -351 527 364 14 364 0 0.00 0 527
11/16/2014 2194.37 554743 -351 334 169 12 169 0 0.00 0 334
11/17/2014 2194.30 554333 -410 504 309 12 309 0 0.00 0 504
11/18/2014 2194.18 553630 -703 718 366 2 366 0 0.00 0 718
11/19/2014 2194.07 552986 -644 628 305 2 305 0 0.00 0 628
11/20/2014 2193.99 552518 -468 576 343 3 343 0 0.40 0 576
11/21/2014 2193.98 552460 -58 416 387 0 -- 0 0.21 0 416
11/22/2014 2194.68 556558 4098 361 2427 0 -- 0 1.59 0 361
11/23/2014 -- -- -- -- -- -- -- -- -- -- --

Later | Latest

Warning! This data is preliminary and subject to revision.

Show CLE Map | Plot CLE Data | 1 Month CLE Data | Real-Time CLE Data | CLE Info